createdAt,value
2019-01-22T00:02:25.679Z,88.30
2019-01-22T00:05:15.634Z,88.10
2019-01-22T00:08:05.430Z,87.90
2019-01-22T00:11:06.922Z,87.80
2019-01-22T00:14:08.357Z,87.80
2019-01-22T00:17:09.287Z,87.80
2019-01-22T00:26:55.811Z,88.00
2019-01-22T00:29:57.229Z,88.20
2019-01-22T00:32:58.672Z,88.20
2019-01-22T00:36:00.176Z,88.00
2019-01-22T00:39:01.206Z,88.10
2019-01-22T00:42:02.474Z,88.10
2019-01-22T00:45:03.533Z,88.40
2019-01-22T00:48:04.443Z,88.40
2019-01-22T00:51:05.611Z,88.30
2019-01-22T00:54:06.753Z,88.10
2019-01-22T00:57:07.735Z,88.10
2019-01-22T01:00:09.608Z,88.40
2019-01-22T01:03:11.142Z,88.60
2019-01-22T01:06:12.809Z,88.70
2019-01-22T01:09:14.616Z,89.20
2019-01-22T01:12:16.310Z,89.90
2019-01-22T01:15:16.011Z,89.80
2019-01-22T01:18:24.829Z,90.00
2019-01-22T01:21:26.093Z,90.00
2019-01-22T01:24:27.159Z,90.10
2019-01-22T01:27:16.478Z,90.30
2019-01-22T01:30:25.823Z,90.40
2019-01-22T01:33:27.018Z,90.40
2019-01-22T01:36:28.975Z,90.40
2019-01-22T01:39:30.063Z,90.40
2019-01-22T01:42:31.862Z,90.40
2019-01-22T01:45:33.651Z,90.20
2019-01-22T01:48:37.835Z,90.20
2019-01-22T01:51:46.057Z,90.20
2019-01-22T01:54:47.930Z,90.20
2019-01-22T01:57:51.276Z,90.50
2019-01-22T02:00:52.227Z,90.30
2019-01-22T02:03:53.954Z,90.30
2019-01-22T02:06:55.372Z,90.30
2019-01-22T02:09:56.503Z,90.20
2019-01-22T02:13:03.786Z,90.20
2019-01-22T02:16:04.946Z,90.20
2019-01-22T02:19:05.859Z,90.30
2019-01-22T02:25:13.883Z,90.40
2019-01-22T02:28:15.599Z,90.20
2019-01-22T02:31:43.607Z,90.30
2019-01-22T02:35:11.494Z,90.30
2019-01-22T02:38:12.748Z,90.40
2019-01-22T02:41:14.195Z,90.40
2019-01-22T02:44:15.388Z,90.40
2019-01-22T02:47:16.465Z,90.50
2019-01-22T02:56:31.758Z,90.40
2019-01-22T03:03:04.567Z,90.40
2019-01-22T03:06:05.943Z,90.40
2019-01-22T03:09:06.763Z,90.30
2019-01-22T03:12:08.576Z,90.60
2019-01-22T03:15:09.576Z,90.70
2019-01-22T03:18:11.814Z,90.70
2019-01-22T03:21:13.198Z,90.70
2019-01-22T03:24:20.879Z,90.70
2019-01-22T03:27:22.723Z,90.70
2019-01-22T03:30:24.737Z,90.70
2019-01-22T03:33:52.541Z,90.80
2019-01-22T03:37:20.226Z,91.00
2019-01-22T03:40:21.291Z,90.90
2019-01-22T03:43:23.121Z,90.90
2019-01-22T03:46:36.015Z,91.00
2019-01-22T03:49:51.214Z,91.10
2019-01-22T03:53:03.871Z,91.10
2019-01-22T03:56:31.705Z,91.00
2019-01-22T03:59:21.431Z,90.90
2019-01-22T04:02:12.835Z,90.90
2019-01-22T04:05:13.982Z,90.80
2019-01-22T04:11:21.658Z,91.00
2019-01-22T04:14:30.498Z,91.00
2019-01-22T04:17:30.315Z,91.00
2019-01-22T04:20:20.063Z,91.00
2019-01-22T04:23:21.347Z,90.90
2019-01-22T04:26:49.427Z,90.90
2019-01-22T04:30:18.473Z,90.90
2019-01-22T04:33:19.746Z,90.80
2019-01-22T04:36:21.040Z,91.00
2019-01-22T04:39:22.247Z,91.00
2019-01-22T04:42:23.250Z,90.90
2019-01-22T04:45:25.273Z,90.90
2019-01-22T04:48:26.320Z,90.90
2019-01-22T04:51:27.912Z,90.80
2019-01-22T04:54:29.943Z,90.70
2019-01-22T04:57:37.889Z,90.90
2019-01-22T05:01:06.147Z,90.80
2019-01-22T05:08:07.850Z,90.80
2019-01-22T05:11:21.462Z,90.80
2019-01-22T05:18:37.828Z,90.30
2019-01-22T05:21:39.314Z,89.40
2019-01-22T05:24:40.740Z,88.80
2019-01-22T05:30:49.216Z,88.60
2019-01-22T05:33:50.682Z,88.70
2019-01-22T05:36:51.694Z,88.60
2019-01-22T05:39:53.159Z,88.30
2019-01-22T05:42:54.495Z,88.00
2019-01-22T05:45:56.015Z,88.40
2019-01-22T05:48:57.308Z,88.20
2019-01-22T05:51:58.558Z,88.40
2019-01-22T05:55:00.462Z,88.40
2019-01-22T06:01:09.522Z,87.20
2019-01-22T06:04:11.291Z,87.00
2019-01-22T06:07:12.739Z,87.30
2019-01-22T06:10:13.911Z,87.80
2019-01-22T06:13:15.771Z,88.20
2019-01-22T06:16:43.820Z,88.50
2019-01-22T06:19:45.385Z,89.30
2019-01-22T06:22:46.454Z,89.40
2019-01-22T06:25:49.626Z,88.80
2019-01-22T06:31:57.381Z,88.90
2019-01-22T06:34:58.510Z,89.00
2019-01-22T06:38:00.093Z,89.10
2019-01-22T06:41:01.182Z,89.60
2019-01-22T06:44:02.468Z,89.40
2019-01-22T06:47:03.400Z,89.20
2019-01-22T06:50:05.694Z,89.20
2019-01-22T06:53:07.411Z,89.10
2019-01-22T06:56:08.535Z,88.70
2019-01-22T07:02:16.802Z,88.60
2019-01-22T07:05:18.873Z,88.40
2019-01-22T07:08:19.889Z,88.50
2019-01-22T07:11:20.883Z,88.30
2019-01-22T07:14:48.808Z,88.00
2019-01-22T07:18:16.712Z,87.60
2019-01-22T07:21:18.426Z,87.90
2019-01-22T07:24:19.903Z,88.30
2019-01-22T07:27:21.691Z,89.30
2019-01-22T07:34:13.194Z,88.40
2019-01-22T07:37:14.794Z,87.80
2019-01-22T07:40:16.614Z,88.30
2019-01-22T07:43:17.655Z,87.70
2019-01-22T07:46:18.657Z,88.10
2019-01-22T07:49:20.126Z,88.10
2019-01-22T07:52:21.379Z,87.80
2019-01-22T07:55:44.090Z,87.80
2019-01-22T07:59:12.034Z,87.90
2019-01-22T08:02:19.401Z,88.20
2019-01-22T08:05:39.634Z,88.10
2019-01-22T08:08:49.847Z,88.00
2019-01-22T08:11:51.498Z,89.10
2019-01-22T08:15:19.838Z,88.60
2019-01-22T08:18:47.637Z,88.30
2019-01-22T08:21:48.663Z,88.70
2019-01-22T08:25:00.682Z,88.10
2019-01-22T08:28:21.075Z,88.50
2019-01-22T08:31:49.204Z,88.60
2019-01-22T08:35:17.310Z,88.70
2019-01-22T08:38:18.615Z,88.60
2019-01-22T08:41:20.411Z,88.60
2019-01-22T08:44:22.057Z,88.70
2019-01-22T08:47:23.820Z,88.70
2019-01-22T08:53:32.290Z,89.30
2019-01-22T08:56:33.668Z,89.10
2019-01-22T08:59:35.593Z,88.90
2019-01-22T09:02:36.491Z,89.70
2019-01-22T09:08:44.492Z,90.20
2019-01-22T09:11:50.019Z,89.90
2019-01-22T09:14:51.825Z,89.70
2019-01-22T09:18:04.430Z,89.40
2019-01-22T09:24:28.834Z,90.10
2019-01-22T09:27:29.783Z,90.10
2019-01-22T09:30:31.572Z,89.90
2019-01-22T09:33:33.079Z,89.70
2019-01-22T09:39:41.858Z,90.00
2019-01-22T09:42:43.251Z,90.30
2019-01-22T09:45:44.343Z,89.90
2019-01-22T09:48:50.320Z,90.10
2019-01-22T09:51:56.623Z,90.10
2019-01-22T09:54:58.512Z,90.20
2019-01-22T09:58:00.278Z,90.40
2019-01-22T10:00:49.758Z,90.40
2019-01-22T10:04:03.457Z,90.40
2019-01-22T10:07:07.808Z,90.40
2019-01-22T10:10:10.123Z,90.50
2019-01-22T10:13:11.394Z,90.70
2019-01-22T10:16:12.353Z,90.40
2019-01-22T10:19:13.555Z,90.40
2019-01-22T10:22:15.256Z,90.60
2019-01-22T10:25:16.900Z,90.90
2019-01-22T10:28:18.780Z,90.70
2019-01-22T10:31:20.454Z,90.40
2019-01-22T10:34:21.867Z,90.30
2019-01-22T10:40:30.760Z,89.70
2019-01-22T10:43:32.456Z,90.00
2019-01-22T10:46:34.080Z,90.10
2019-01-22T10:49:36.091Z,90.10
2019-01-22T10:52:37.775Z,89.90
2019-01-22T10:55:39.411Z,89.00
2019-01-22T10:58:40.438Z,89.70
2019-01-22T11:01:42.051Z,90.10
2019-01-22T11:04:31.890Z,90.00
2019-01-22T11:11:00.697Z,90.40
2019-01-22T11:14:01.980Z,90.40
2019-01-22T11:17:02.971Z,90.50
2019-01-22T11:20:04.328Z,90.40
2019-01-22T11:23:06.344Z,90.30
2019-01-22T11:26:07.211Z,89.10
2019-01-22T11:29:08.533Z,89.20
2019-01-22T11:32:10.647Z,88.90
2019-01-22T11:35:12.239Z,88.20
2019-01-22T11:41:28.587Z,87.90
2019-01-22T11:44:18.426Z,87.60
2019-01-22T11:50:35.735Z,87.60
2019-01-22T11:53:37.246Z,87.80
2019-01-22T11:56:39.338Z,88.20
2019-01-22T11:59:41.354Z,88.10
2019-01-22T12:02:32.176Z,88.60
2019-01-22T12:05:41.686Z,88.70
2019-01-22T12:11:52.014Z,88.50
2019-01-22T12:14:53.823Z,88.40
2019-01-22T12:17:55.614Z,88.00
2019-01-22T12:20:56.697Z,87.60
2019-01-22T12:23:58.022Z,87.50
2019-01-22T12:26:47.630Z,87.70
2019-01-22T12:29:56.679Z,87.60
2019-01-22T12:32:58.488Z,88.00
2019-01-22T12:35:51.420Z,88.10
2019-01-22T12:41:56.567Z,88.10
2019-01-22T12:54:07.810Z,88.10
2019-01-22T12:57:09.050Z,87.80
2019-01-22T13:00:10.533Z,88.00
2019-01-22T13:03:11.899Z,88.20
2019-01-22T13:06:13.499Z,88.20
2019-01-22T13:09:20.418Z,87.70
2019-01-22T13:12:21.740Z,88.30
2019-01-22T13:15:22.606Z,88.20
2019-01-22T13:18:24.665Z,88.90
2019-01-22T13:21:26.116Z,88.60
2019-01-22T13:24:27.735Z,88.20
2019-01-22T13:27:29.514Z,88.30
2019-01-22T13:30:31.328Z,88.50
2019-01-22T13:33:32.591Z,88.10
2019-01-22T13:36:34.217Z,87.80
2019-01-22T13:42:43.101Z,87.50
2019-01-22T13:45:44.325Z,87.10
2019-01-22T13:48:50.747Z,87.00
2019-01-22T13:51:59.069Z,86.90
2019-01-22T13:55:00.186Z,86.50
2019-01-22T13:58:02.617Z,86.40
2019-01-22T14:01:04.398Z,86.40
2019-01-22T14:04:07.051Z,86.90
2019-01-22T14:07:09.013Z,87.00
2019-01-22T14:10:16.916Z,87.10
2019-01-22T14:13:22.723Z,87.10
2019-01-22T14:16:24.111Z,87.10
2019-01-22T14:19:25.172Z,87.10
2019-01-22T14:25:49.130Z,87.50
2019-01-22T14:28:50.694Z,87.90
2019-01-22T14:31:52.224Z,87.50
2019-01-22T14:34:53.962Z,88.20
2019-01-22T14:37:55.128Z,88.00
2019-01-22T14:41:02.998Z,87.60
2019-01-22T14:44:04.926Z,87.40
2019-01-22T14:47:08.360Z,87.40
2019-01-22T14:50:10.067Z,87.70
2019-01-22T14:53:12.461Z,87.10
2019-01-22T14:56:14.726Z,86.80
2019-01-22T14:59:15.898Z,86.60
2019-01-22T15:02:17.570Z,87.10
2019-01-22T15:05:19.700Z,87.70
2019-01-22T15:08:21.002Z,88.50
2019-01-22T15:21:12.525Z,88.50
2019-01-22T15:24:14.746Z,88.70
2019-01-22T15:27:16.846Z,88.80
2019-01-22T15:30:23.090Z,88.90
2019-01-22T15:33:25.303Z,88.70
2019-01-22T15:36:27.136Z,89.00
2019-01-22T15:39:28.996Z,89.20
2019-01-22T15:45:37.802Z,88.20
2019-01-22T15:51:46.809Z,89.00
2019-01-22T15:54:48.791Z,88.90
2019-01-22T16:01:23.909Z,88.10
2019-01-22T16:04:26.122Z,88.50
2019-01-22T16:07:28.842Z,88.10
2019-01-22T16:10:30.079Z,88.00
2019-01-22T16:16:40.039Z,88.60
2019-01-22T16:19:41.807Z,88.60
2019-01-22T16:22:47.162Z,88.30
2019-01-22T16:25:50.611Z,88.50
2019-01-22T16:28:52.189Z,88.30
2019-01-22T16:31:55.031Z,88.30
2019-01-22T16:34:56.947Z,88.40
2019-01-22T16:37:58.676Z,88.30
2019-01-22T16:41:00.733Z,88.80
2019-01-22T16:47:09.207Z,89.10
2019-01-22T16:50:10.662Z,89.30
2019-01-22T16:53:12.266Z,89.40
2019-01-22T16:56:14.478Z,89.40
2019-01-22T16:59:16.662Z,89.40
2019-01-22T17:02:18.387Z,89.40
2019-01-22T17:05:20.893Z,89.40
2019-01-22T17:08:23.008Z,89.40
2019-01-22T17:11:24.042Z,89.40
2019-01-22T17:17:33.326Z,90.20
2019-01-22T17:20:37.397Z,90.20
2019-01-22T17:23:40.598Z,90.40
2019-01-22T17:26:42.804Z,90.70
2019-01-22T17:29:44.820Z,91.00
2019-01-22T17:36:23.879Z,91.10
2019-01-22T17:39:25.753Z,91.40
2019-01-22T17:42:27.527Z,91.30
2019-01-22T17:48:40.675Z,91.30
2019-01-22T17:51:43.338Z,91.50
2019-01-22T17:54:45.728Z,91.50
2019-01-22T18:00:30.098Z,91.60
2019-01-22T18:03:31.530Z,91.60
2019-01-22T18:06:33.041Z,91.80
2019-01-22T18:09:34.899Z,91.70
2019-01-22T18:12:37.046Z,91.60
2019-01-22T18:18:46.461Z,91.60
2019-01-22T18:21:47.780Z,91.80
2019-01-22T18:24:50.361Z,91.70
2019-01-22T18:27:53.046Z,91.80
2019-01-22T18:33:44.090Z,91.90
2019-01-22T18:36:46.795Z,92.10
2019-01-22T18:39:48.732Z,92.70
2019-01-22T18:48:52.512Z,92.90
2019-01-22T18:55:01.044Z,92.60
2019-01-22T18:58:03.932Z,92.60
2019-01-22T19:01:06.779Z,92.30
2019-01-22T19:04:07.748Z,92.40
2019-01-22T19:07:09.778Z,92.50
2019-01-22T19:10:11.541Z,92.40
2019-01-22T19:13:13.106Z,92.60
2019-01-22T19:19:24.127Z,92.90
2019-01-22T19:22:25.650Z,92.90
2019-01-22T19:25:27.722Z,92.80
2019-01-22T19:28:30.269Z,92.80
2019-01-22T19:31:32.487Z,92.60
2019-01-22T19:34:34.056Z,92.70
2019-01-22T19:37:36.790Z,93.00
2019-01-22T19:40:38.391Z,93.00
2019-01-22T19:43:39.670Z,92.90
2019-01-22T19:59:40.730Z,93.10
2019-01-22T20:02:42.997Z,93.10
2019-01-22T20:05:45.130Z,93.20
2019-01-22T20:08:47.775Z,93.20
2019-01-22T20:11:53.247Z,93.20
2019-01-22T20:24:38.120Z,93.10
2019-01-22T20:27:40.031Z,93.20
2019-01-22T20:30:42.102Z,93.30
2019-01-22T20:33:44.308Z,93.30
2019-01-22T20:39:29.638Z,93.40
2019-01-22T20:51:44.782Z,93.40
2019-01-22T20:54:46.448Z,93.30
2019-01-22T20:57:54.325Z,93.10
2019-01-22T21:00:51.511Z,93.10
2019-01-22T21:03:53.565Z,93.40
2019-01-22T21:06:54.966Z,93.30
2019-01-22T21:09:56.956Z,93.50
2019-01-22T21:12:58.965Z,93.60
2019-01-22T21:16:00.299Z,93.50
2019-01-22T21:22:09.692Z,93.40
2019-01-22T21:25:11.851Z,93.70
2019-01-22T21:28:13.201Z,93.50
2019-01-22T21:31:15.657Z,93.50
2019-01-22T21:34:17.011Z,93.60
2019-01-22T21:37:18.694Z,94.00
2019-01-22T21:40:19.829Z,94.10
2019-01-22T21:43:21.755Z,93.70
2019-01-22T21:46:23.898Z,93.60
2019-01-22T21:49:31.583Z,93.50
2019-01-22T21:52:33.238Z,93.50
2019-01-22T21:55:34.668Z,93.50
2019-01-22T21:58:35.729Z,93.50
2019-01-22T22:01:37.166Z,93.40
2019-01-22T22:04:38.953Z,93.70
2019-01-22T22:07:40.827Z,93.60
2019-01-22T22:10:42.891Z,93.50
2019-01-22T22:13:44.424Z,93.80
2019-01-22T22:16:46.498Z,93.50
2019-01-22T22:19:53.520Z,93.40
2019-01-22T22:29:24.679Z,93.10
2019-01-22T22:32:25.870Z,93.20
2019-01-22T22:35:27.555Z,93.20
2019-01-22T22:38:28.968Z,93.30
2019-01-22T22:41:29.870Z,93.50
2019-01-22T22:44:31.467Z,93.40
2019-01-22T22:47:33.228Z,93.30
2019-01-22T22:50:40.547Z,93.50
2019-01-22T22:53:42.138Z,93.30
2019-01-22T22:56:44.168Z,93.50
2019-01-22T22:59:45.311Z,93.30
2019-01-22T23:02:46.897Z,93.10
2019-01-22T23:05:47.863Z,92.90
2019-01-22T23:08:47.828Z,93.00
2019-01-22T23:11:56.698Z,93.00
2019-01-22T23:14:58.420Z,93.00
2019-01-22T23:17:59.874Z,93.00
2019-01-22T23:21:07.266Z,92.80
2019-01-22T23:24:08.563Z,92.80
2019-01-22T23:27:09.587Z,93.00
2019-01-22T23:30:10.670Z,93.10
2019-01-22T23:33:12.252Z,93.10
2019-01-22T23:36:14.024Z,93.10
2019-01-22T23:39:15.289Z,93.10
2019-01-22T23:42:16.784Z,93.10
2019-01-22T23:45:18.580Z,93.30
2019-01-22T23:48:19.744Z,93.50
2019-01-22T23:54:27.761Z,93.40
2019-01-22T23:57:29.833Z,93.30
